createdAt,value
2022-09-30T00:01:09.554Z,11.00
2022-09-30T00:03:39.965Z,7.97
2022-09-30T00:06:09.104Z,7.27
2022-09-30T00:08:36.959Z,6.53
2022-09-30T00:11:08.562Z,9.40
2022-09-30T00:13:36.911Z,9.90
2022-09-30T00:16:04.337Z,7.03
2022-09-30T00:18:32.235Z,8.73
2022-09-30T00:20:59.749Z,10.97
2022-09-30T00:23:26.913Z,8.97
2022-09-30T00:25:58.912Z,11.03
2022-09-30T00:28:26.553Z,10.90
2022-09-30T00:30:54.034Z,12.07
2022-09-30T00:33:21.507Z,9.53
2022-09-30T00:35:48.726Z,8.30
2022-09-30T00:38:15.917Z,9.67
2022-09-30T00:40:43.255Z,12.33
2022-09-30T00:43:20.977Z,7.90
2022-09-30T00:45:51.411Z,9.73
2022-09-30T00:48:20.864Z,9.43
2022-09-30T00:50:49.637Z,9.27
2022-09-30T00:53:18.769Z,8.40
2022-09-30T00:55:46.003Z,8.73
2022-09-30T00:58:16.369Z,11.13
2022-09-30T01:00:43.601Z,10.97
2022-09-30T01:03:12.395Z,10.97
2022-09-30T01:05:39.615Z,9.53
2022-09-30T01:08:08.329Z,11.13
2022-09-30T01:10:35.762Z,11.87
2022-09-30T01:13:03.180Z,10.50
2022-09-30T01:15:41.223Z,10.40
2022-09-30T01:18:28.617Z,9.40
2022-09-30T01:20:58.553Z,9.27
2022-09-30T01:23:31.582Z,8.13
2022-09-30T01:26:17.403Z,8.47
2022-09-30T01:28:50.284Z,11.30
2022-09-30T01:31:37.967Z,8.83
2022-09-30T01:34:05.808Z,7.20
2022-09-30T01:36:56.051Z,9.83
2022-09-30T01:39:43.225Z,12.13
2022-09-30T01:42:10.357Z,9.87
2022-09-30T01:44:40.507Z,10.00
2022-09-30T01:47:33.932Z,10.00
2022-09-30T01:50:04.500Z,12.17
2022-09-30T01:52:45.711Z,10.43
2022-09-30T01:55:17.537Z,10.20
2022-09-30T01:57:57.626Z,12.80
2022-09-30T02:00:25.283Z,10.37
2022-09-30T02:02:55.326Z,8.33
2022-09-30T02:05:22.545Z,8.43
2022-09-30T02:07:55.539Z,8.40
2022-09-30T02:10:22.709Z,12.27
2022-09-30T02:12:52.094Z,9.13
2022-09-30T02:15:23.285Z,8.97
2022-09-30T02:17:58.494Z,10.07
2022-09-30T02:20:25.581Z,9.83
2022-09-30T02:22:54.056Z,8.77
2022-09-30T02:25:28.901Z,11.57
2022-09-30T02:27:59.065Z,10.07
2022-09-30T02:30:27.832Z,11.40
2022-09-30T02:32:59.939Z,9.40
2022-09-30T02:35:36.204Z,10.60
2022-09-30T02:38:06.453Z,9.20
2022-09-30T02:40:40.080Z,10.13
2022-09-30T02:43:07.692Z,11.73
2022-09-30T02:45:43.906Z,10.43
2022-09-30T02:48:11.025Z,9.07
2022-09-30T02:51:07.767Z,10.10
2022-09-30T02:53:38.888Z,9.20
2022-09-30T02:56:18.547Z,10.93
2022-09-30T02:58:46.424Z,15.83
2022-09-30T03:01:14.946Z,11.87
2022-09-30T03:03:44.025Z,12.03
2022-09-30T03:06:11.709Z,15.03
2022-09-30T03:08:38.972Z,13.73
2022-09-30T03:11:06.470Z,12.17
2022-09-30T03:13:52.477Z,13.53
2022-09-30T03:16:30.855Z,10.67
2022-09-30T03:19:08.014Z,18.00
2022-09-30T03:21:38.866Z,14.77
2022-09-30T03:24:24.714Z,12.50
2022-09-30T03:27:01.400Z,10.00
2022-09-30T03:29:36.087Z,11.20
2022-09-30T03:32:21.502Z,10.13
2022-09-30T03:35:03.387Z,13.43
2022-09-30T03:37:38.990Z,10.87
2022-09-30T03:40:11.734Z,12.43
2022-09-30T03:42:43.038Z,11.30
2022-09-30T03:45:18.600Z,19.37
2022-09-30T03:47:48.207Z,14.67
2022-09-30T03:50:18.615Z,11.30
2022-09-30T03:52:45.922Z,10.50
2022-09-30T03:55:13.507Z,12.13
2022-09-30T03:57:40.734Z,17.80
2022-09-30T04:00:08.426Z,11.20
2022-09-30T04:02:37.798Z,15.23
2022-09-30T04:05:05.937Z,9.33
2022-09-30T04:07:33.166Z,12.40
2022-09-30T04:10:00.374Z,13.67
2022-09-30T04:12:27.540Z,15.10
2022-09-30T04:14:54.689Z,12.83
2022-09-30T04:17:21.914Z,13.97
2022-09-30T04:19:49.974Z,11.00
2022-09-30T04:22:17.549Z,12.57
2022-09-30T04:24:44.939Z,12.60
2022-09-30T04:27:12.134Z,10.00
2022-09-30T04:29:39.314Z,10.53
2022-09-30T04:32:06.479Z,11.20
2022-09-30T04:34:33.680Z,10.63
2022-09-30T04:37:00.880Z,10.80
2022-09-30T04:39:28.085Z,12.00
2022-09-30T04:41:55.235Z,12.80
2022-09-30T04:44:22.719Z,10.03
2022-09-30T04:46:50.689Z,9.43
2022-09-30T04:49:17.502Z,9.67
2022-09-30T04:51:46.271Z,13.47
2022-09-30T04:54:13.488Z,12.03
2022-09-30T04:56:40.310Z,10.93
2022-09-30T04:59:08.148Z,11.53
2022-09-30T05:01:35.489Z,9.83
2022-09-30T05:04:03.034Z,8.40
2022-09-30T05:06:30.223Z,11.43
2022-09-30T05:08:57.420Z,10.53
2022-09-30T05:11:25.663Z,10.33
2022-09-30T05:13:52.951Z,8.77
2022-09-30T05:16:20.246Z,11.63
2022-09-30T05:18:47.448Z,9.50
2022-09-30T05:21:16.266Z,13.07
2022-09-30T05:23:43.481Z,9.10
2022-09-30T05:26:12.487Z,14.60
2022-09-30T05:28:40.878Z,10.57
2022-09-30T05:31:08.730Z,11.73
2022-09-30T05:33:36.718Z,9.33
2022-09-30T05:36:05.503Z,13.87
2022-09-30T05:38:33.176Z,10.70
2022-09-30T05:41:07.517Z,8.97
2022-09-30T05:43:35.086Z,11.83
2022-09-30T05:46:02.762Z,17.73
2022-09-30T05:48:30.174Z,12.07
2022-09-30T05:50:58.740Z,10.77
2022-09-30T05:53:26.333Z,11.80
2022-09-30T05:55:53.529Z,13.00
2022-09-30T05:58:21.303Z,9.97
2022-09-30T06:00:49.708Z,11.17
2022-09-30T06:03:17.913Z,11.73
2022-09-30T06:05:45.908Z,10.40
2022-09-30T06:08:13.855Z,15.30
2022-09-30T06:10:42.098Z,12.33
2022-09-30T06:13:09.271Z,15.47
2022-09-30T06:15:39.694Z,12.90
2022-09-30T06:18:07.100Z,12.50
2022-09-30T06:20:34.476Z,12.93
2022-09-30T06:23:02.177Z,11.97
2022-09-30T06:25:31.135Z,11.93
2022-09-30T06:27:58.403Z,11.33
2022-09-30T06:30:25.841Z,12.93
2022-09-30T06:32:54.101Z,15.60
2022-09-30T06:35:24.645Z,12.33
2022-09-30T06:37:52.574Z,14.77
2022-09-30T06:40:22.732Z,16.23
2022-09-30T06:42:50.055Z,13.60
2022-09-30T06:45:29.983Z,16.40
2022-09-30T06:48:02.426Z,11.53
2022-09-30T06:50:30.861Z,14.30
2022-09-30T06:52:59.298Z,13.67
2022-09-30T06:55:27.463Z,13.67
2022-09-30T06:57:56.149Z,15.37
2022-09-30T07:00:23.854Z,16.63
2022-09-30T07:02:51.032Z,13.63
2022-09-30T07:05:19.029Z,13.93
2022-09-30T07:07:46.487Z,13.77
2022-09-30T07:10:13.734Z,11.17
2022-09-30T07:12:42.240Z,11.27
2022-09-30T07:15:13.543Z,12.80
2022-09-30T07:17:41.087Z,12.70
2022-09-30T07:20:08.580Z,14.30
2022-09-30T07:22:35.927Z,11.60
2022-09-30T07:25:04.165Z,14.23
2022-09-30T07:27:33.941Z,14.03
2022-09-30T07:30:12.831Z,11.97
2022-09-30T07:32:43.393Z,14.27
2022-09-30T07:35:10.606Z,13.80
2022-09-30T07:37:37.786Z,11.97
2022-09-30T07:40:07.045Z,15.03
2022-09-30T07:42:37.492Z,12.13
2022-09-30T07:45:05.859Z,11.53
2022-09-30T07:47:33.004Z,13.37
2022-09-30T07:50:00.496Z,12.77
2022-09-30T07:52:27.749Z,13.33
2022-09-30T07:54:55.797Z,17.00
2022-09-30T07:57:23.003Z,14.20
2022-09-30T07:59:50.217Z,13.97
2022-09-30T08:02:18.829Z,14.13
2022-09-30T08:04:46.210Z,17.43
2022-09-30T08:07:14.661Z,16.63
2022-09-30T08:09:41.611Z,14.27
2022-09-30T08:12:08.936Z,14.93
2022-09-30T08:14:36.186Z,17.80
2022-09-30T08:17:03.398Z,17.00
2022-09-30T08:19:33.480Z,16.27
2022-09-30T08:22:00.752Z,18.43
2022-09-30T08:24:28.154Z,14.40
2022-09-30T08:26:55.943Z,17.57
2022-09-30T08:29:53.345Z,18.83
2022-09-30T08:32:10.606Z,18.83
2022-09-30T08:34:37.840Z,17.90
2022-09-30T08:37:09.293Z,18.33
2022-09-30T08:39:40.057Z,22.60
2022-09-30T08:42:45.961Z,20.20
2022-09-30T08:45:19.124Z,27.67
2022-09-30T08:47:58.269Z,22.77
2022-09-30T08:50:35.820Z,22.83
2022-09-30T08:53:25.562Z,21.43
2022-09-30T08:55:56.207Z,21.00
2022-09-30T08:58:29.153Z,21.93
2022-09-30T09:01:03.041Z,23.80
2022-09-30T09:03:31.223Z,21.00
2022-09-30T09:06:17.727Z,18.70
2022-09-30T09:08:49.961Z,23.77
2022-09-30T09:11:51.827Z,18.20
2022-09-30T09:14:18.606Z,21.90
2022-09-30T09:17:15.466Z,19.23
2022-09-30T09:19:54.158Z,20.47
2022-09-30T09:22:24.656Z,20.93
2022-09-30T09:24:53.602Z,24.10
2022-09-30T09:27:32.611Z,21.70
2022-09-30T09:30:13.799Z,28.97
2022-09-30T09:32:42.168Z,19.70
2022-09-30T09:35:38.141Z,20.70
2022-09-30T09:38:30.571Z,22.70
2022-09-30T09:41:17.178Z,23.03
2022-09-30T09:44:06.238Z,22.43
2022-09-30T09:46:45.227Z,20.37
2022-09-30T09:49:27.924Z,22.33
2022-09-30T09:52:09.476Z,21.17
2022-09-30T09:54:41.348Z,19.10
2022-09-30T09:57:09.851Z,21.13
2022-09-30T09:59:55.821Z,22.37
2022-09-30T10:02:28.626Z,87.17
2022-09-30T10:05:01.426Z,29.80
2022-09-30T10:07:30.457Z,20.93
2022-09-30T10:10:23.440Z,23.20
2022-09-30T10:12:51.065Z,24.43
2022-09-30T10:15:26.936Z,24.77
2022-09-30T10:17:59.004Z,20.13
2022-09-30T10:20:36.409Z,20.60
2022-09-30T10:23:17.633Z,19.70
2022-09-30T10:25:56.838Z,21.37
2022-09-30T10:28:28.025Z,22.27
2022-09-30T10:30:57.662Z,20.30
2022-09-30T10:33:31.817Z,21.98
2022-09-30T10:36:09.709Z,22.45
2022-09-30T10:38:38.206Z,25.17
2022-09-30T10:41:06.110Z,17.38
2022-09-30T10:43:54.557Z,19.70
2022-09-30T10:46:27.685Z,21.88
2022-09-30T10:48:56.177Z,16.05
2022-09-30T10:51:43.605Z,18.25
2022-09-30T10:54:30.740Z,13.80
2022-09-30T10:57:04.011Z,16.30
2022-09-30T10:59:33.993Z,15.15
2022-09-30T11:05:03.338Z,22.15
2022-09-30T11:07:45.909Z,14.93
2022-09-30T11:10:34.285Z,14.93
2022-09-30T11:13:04.516Z,12.02
2022-09-30T11:15:35.529Z,12.82
2022-09-30T11:18:11.535Z,14.10
2022-09-30T11:20:58.973Z,15.98
2022-09-30T11:23:33.492Z,14.35
2022-09-30T11:26:07.905Z,15.02
2022-09-30T11:28:44.113Z,14.65
2022-09-30T11:31:26.562Z,13.25
2022-09-30T11:34:14.024Z,15.32
2022-09-30T11:36:46.909Z,13.07
2022-09-30T11:39:14.638Z,13.30
2022-09-30T11:41:46.111Z,12.13
2022-09-30T11:44:13.236Z,12.98
2022-09-30T11:46:49.296Z,11.10
2022-09-30T11:49:35.223Z,14.13
2022-09-30T11:52:21.619Z,11.35
2022-09-30T11:54:54.662Z,11.25
2022-09-30T11:57:28.693Z,8.15
2022-09-30T12:00:14.507Z,8.95
2022-09-30T12:03:04.709Z,7.95
2022-09-30T12:05:38.229Z,8.68
2022-09-30T12:08:36.112Z,9.00
2022-09-30T12:11:11.601Z,7.03
2022-09-30T12:13:48.082Z,7.65
2022-09-30T12:16:20.710Z,7.82
2022-09-30T12:18:56.268Z,8.60
2022-09-30T12:21:35.574Z,7.40
2022-09-30T12:24:02.556Z,8.18
2022-09-30T12:26:31.190Z,7.32
2022-09-30T12:29:23.878Z,7.20
2022-09-30T12:32:09.348Z,9.48
2022-09-30T12:35:15.846Z,7.03
2022-09-30T12:37:55.837Z,6.15
2022-09-30T12:40:25.671Z,7.43
2022-09-30T12:43:15.613Z,6.85
2022-09-30T12:45:55.204Z,6.80
2022-09-30T12:48:26.786Z,8.88
2022-09-30T12:50:57.963Z,7.18
2022-09-30T12:53:29.703Z,7.47
2022-09-30T12:56:07.440Z,7.80
2022-09-30T12:58:45.661Z,5.75
2022-09-30T13:01:35.052Z,6.35
2022-09-30T13:04:01.841Z,5.20
2022-09-30T13:06:48.590Z,5.72
2022-09-30T13:09:21.327Z,4.93
2022-09-30T13:12:12.328Z,5.18
2022-09-30T13:14:44.047Z,5.18
2022-09-30T13:17:11.386Z,4.78
2022-09-30T13:19:42.317Z,4.35
2022-09-30T13:22:21.912Z,4.68
2022-09-30T13:25:03.001Z,5.07
2022-09-30T13:27:40.546Z,4.72
2022-09-30T13:30:14.654Z,4.85
2022-09-30T13:32:43.467Z,7.05
2022-09-30T13:35:25.952Z,5.85
2022-09-30T13:38:11.960Z,5.03
2022-09-30T13:41:00.579Z,5.15
2022-09-30T13:44:04.793Z,4.82
2022-09-30T13:46:39.726Z,4.20
2022-09-30T13:49:12.698Z,4.45
2022-09-30T13:51:41.803Z,6.32
2022-09-30T13:54:31.969Z,6.10
2022-09-30T13:57:01.118Z,6.40
2022-09-30T14:00:07.129Z,5.43
2022-09-30T14:03:11.851Z,5.13
2022-09-30T14:06:15.215Z,5.47
2022-09-30T14:09:05.814Z,4.60
2022-09-30T14:11:36.039Z,4.53
2022-09-30T14:14:06.226Z,6.07
2022-09-30T14:16:36.717Z,6.30
2022-09-30T14:19:07.043Z,5.60
2022-09-30T14:21:45.406Z,4.45
2022-09-30T14:24:16.240Z,7.35
2022-09-30T14:26:48.685Z,6.13
2022-09-30T14:29:54.404Z,5.75
2022-09-30T14:32:29.077Z,6.10
2022-09-30T14:34:57.145Z,4.68
2022-09-30T14:37:29.717Z,5.47
2022-09-30T14:39:57.034Z,4.40
2022-09-30T14:42:32.179Z,4.82
2022-09-30T14:45:04.537Z,5.30
2022-09-30T14:47:39.027Z,5.03
2022-09-30T14:50:17.337Z,4.80
2022-09-30T14:52:46.748Z,5.93
2022-09-30T14:55:25.572Z,4.85
2022-09-30T14:58:17.603Z,5.03
2022-09-30T15:00:48.712Z,6.65
2022-09-30T15:03:18.901Z,4.75
2022-09-30T15:05:45.886Z,5.53
2022-09-30T15:08:20.570Z,4.45
2022-09-30T15:10:53.003Z,5.55
2022-09-30T15:13:26.738Z,9.95
2022-09-30T15:15:53.726Z,7.68
2022-09-30T15:18:42.127Z,5.55
2022-09-30T15:21:13.073Z,4.75
2022-09-30T15:23:44.738Z,4.80
2022-09-30T15:26:13.273Z,5.72
2022-09-30T15:28:40.221Z,4.65
2022-09-30T15:31:17.876Z,4.78
2022-09-30T15:33:44.719Z,4.05
2022-09-30T15:36:19.117Z,3.10
2022-09-30T15:38:51.194Z,3.70
2022-09-30T15:41:18.418Z,3.45
2022-09-30T15:43:51.923Z,3.65
2022-09-30T15:46:35.245Z,4.05
2022-09-30T15:49:23.321Z,5.78
2022-09-30T15:51:50.242Z,2.88
2022-09-30T15:54:35.029Z,3.88
2022-09-30T15:57:15.544Z,4.25
2022-09-30T16:00:04.392Z,3.88
2022-09-30T16:02:31.787Z,5.45
2022-09-30T16:05:02.066Z,20.88
2022-09-30T16:07:30.930Z,4.55
2022-09-30T16:09:59.313Z,3.85
2022-09-30T16:12:31.433Z,3.53
2022-09-30T16:15:14.280Z,4.05
2022-09-30T16:17:50.072Z,3.97
2022-09-30T16:20:19.630Z,3.90
2022-09-30T16:22:46.466Z,3.15
2022-09-30T16:25:19.518Z,5.10
2022-09-30T16:27:47.300Z,3.83
2022-09-30T16:30:19.679Z,4.35
2022-09-30T16:32:51.944Z,4.90
2022-09-30T16:35:23.494Z,6.72
2022-09-30T16:37:57.552Z,8.27
2022-09-30T16:40:26.367Z,7.43
2022-09-30T16:42:58.703Z,5.03
2022-09-30T16:45:27.517Z,5.72
2022-09-30T16:47:56.011Z,7.13
2022-09-30T16:50:31.451Z,4.72
2022-09-30T16:52:58.356Z,8.30
2022-09-30T16:55:26.657Z,7.20
2022-09-30T16:57:58.057Z,5.28
2022-09-30T17:00:29.134Z,5.20
2022-09-30T17:02:56.127Z,5.35
2022-09-30T17:05:25.226Z,6.35
2022-09-30T17:07:58.062Z,5.47
2022-09-30T17:10:29.135Z,4.13
2022-09-30T17:13:03.886Z,4.07
2022-09-30T17:15:34.474Z,4.35
2022-09-30T17:18:05.374Z,5.60
2022-09-30T17:20:33.271Z,5.60
2022-09-30T17:23:07.296Z,3.38
2022-09-30T17:25:35.359Z,8.77
2022-09-30T17:28:02.833Z,4.72
2022-09-30T17:30:30.388Z,2.65
2022-09-30T17:32:57.554Z,3.90
2022-09-30T17:35:24.770Z,6.00
2022-09-30T17:37:51.937Z,6.28
2022-09-30T17:40:37.632Z,8.02
2022-09-30T17:43:08.036Z,12.45
2022-09-30T17:45:46.273Z,11.25
2022-09-30T17:48:14.195Z,5.32
2022-09-30T17:50:42.490Z,3.88
2022-09-30T17:53:19.529Z,6.15
2022-09-30T17:55:47.986Z,8.48
2022-09-30T17:58:18.679Z,4.13
2022-09-30T18:00:47.166Z,6.10
2022-09-30T18:03:14.431Z,5.03
2022-09-30T18:05:43.858Z,5.67
2022-09-30T18:08:13.027Z,6.30
2022-09-30T18:10:45.427Z,3.60
2022-09-30T18:13:14.601Z,6.63
2022-09-30T18:15:41.800Z,6.23
2022-09-30T18:18:08.714Z,4.40
2022-09-30T18:20:35.909Z,5.93
2022-09-30T18:23:03.099Z,4.40
2022-09-30T18:25:33.164Z,5.53
2022-09-30T18:28:01.024Z,5.60
2022-09-30T18:30:29.670Z,3.60
2022-09-30T18:32:59.281Z,5.17
2022-09-30T18:35:26.503Z,9.37
2022-09-30T18:37:53.947Z,5.27
2022-09-30T18:40:22.421Z,3.73
2022-09-30T18:42:56.686Z,5.47
2022-09-30T18:45:24.924Z,6.93
2022-09-30T18:47:56.044Z,6.53
2022-09-30T18:50:23.503Z,3.53
2022-09-30T18:52:52.339Z,4.17
2022-09-30T18:55:19.829Z,4.17
2022-09-30T18:57:48.355Z,3.47
2022-09-30T19:00:16.872Z,3.20
2022-09-30T19:02:47.586Z,5.43
2022-09-30T19:05:16.728Z,5.03
2022-09-30T19:07:43.646Z,4.83
2022-09-30T19:10:13.161Z,9.10
2022-09-30T19:12:44.587Z,3.87
2022-09-30T19:15:16.678Z,3.87
2022-09-30T19:17:44.706Z,4.37
2022-09-30T19:20:14.134Z,5.87
2022-09-30T19:22:40.913Z,5.87
2022-09-30T19:25:12.623Z,6.73
2022-09-30T19:27:41.247Z,7.37
2022-09-30T19:30:13.713Z,8.73
2022-09-30T19:32:40.645Z,6.57
2022-09-30T19:35:11.772Z,4.77
2022-09-30T19:37:42.899Z,4.77
2022-09-30T19:40:21.573Z,4.17
2022-09-30T19:42:49.722Z,7.27
2022-09-30T19:45:19.024Z,7.80
2022-09-30T19:47:47.862Z,3.90
2022-09-30T19:50:14.784Z,4.10
2022-09-30T19:52:51.569Z,3.43
2022-09-30T19:55:22.274Z,6.53
2022-09-30T19:57:49.264Z,3.23
2022-09-30T20:00:16.414Z,2.43
2022-09-30T20:02:43.179Z,5.53
2022-09-30T20:05:10.258Z,3.97
2022-09-30T20:07:37.121Z,2.37
2022-09-30T20:10:04.361Z,2.33
2022-09-30T20:12:31.130Z,3.50
2022-09-30T20:15:16.337Z,2.30
2022-09-30T20:17:43.312Z,2.67
2022-09-30T20:20:28.532Z,3.13
2022-09-30T20:22:55.506Z,3.63
2022-09-30T20:25:22.335Z,2.87
2022-09-30T20:27:52.425Z,3.37
2022-09-30T20:30:20.526Z,2.97
2022-09-30T20:32:47.345Z,3.13
2022-09-30T20:35:14.276Z,5.93
2022-09-30T20:37:42.611Z,4.00
2022-09-30T20:40:10.051Z,5.10
2022-09-30T20:42:38.628Z,3.67
2022-09-30T20:45:10.345Z,3.27
2022-09-30T20:47:38.688Z,3.17
2022-09-30T20:50:06.495Z,4.00
2022-09-30T20:52:33.491Z,2.83
2022-09-30T20:55:00.506Z,2.90
2022-09-30T20:57:30.032Z,3.43
2022-09-30T20:59:59.143Z,5.97
2022-09-30T21:02:28.733Z,2.70
2022-09-30T21:04:59.551Z,3.50
2022-09-30T21:07:26.935Z,4.70
2022-09-30T21:09:53.992Z,7.10
2022-09-30T21:12:20.976Z,4.33
2022-09-30T21:14:48.085Z,4.10
2022-09-30T21:17:15.206Z,4.93
2022-09-30T21:19:42.270Z,3.00
2022-09-30T21:22:09.610Z,3.37
2022-09-30T21:24:36.482Z,3.37
2022-09-30T21:27:05.888Z,5.23
2022-09-30T21:29:33.500Z,2.63
2022-09-30T21:32:00.606Z,3.13
2022-09-30T21:34:28.042Z,5.80
2022-09-30T21:36:54.856Z,2.93
2022-09-30T21:39:21.647Z,4.13
2022-09-30T21:41:48.854Z,4.10
2022-09-30T21:44:16.859Z,3.83
2022-09-30T21:46:48.517Z,3.10
2022-09-30T21:49:21.025Z,3.37
2022-09-30T21:51:47.935Z,5.37
2022-09-30T21:54:15.592Z,3.50
2022-09-30T21:56:43.636Z,15.47
2022-09-30T21:59:12.120Z,4.97
2022-09-30T22:01:40.066Z,4.83
2022-09-30T22:04:07.541Z,4.87
2022-09-30T22:06:34.404Z,3.40
2022-09-30T22:09:01.794Z,3.63
2022-09-30T22:11:30.630Z,3.70
2022-09-30T22:13:59.265Z,4.27
2022-09-30T22:16:31.996Z,7.17
2022-09-30T22:19:01.115Z,3.27
2022-09-30T22:21:32.028Z,3.67
2022-09-30T22:24:00.406Z,3.60
2022-09-30T22:26:28.203Z,6.07
2022-09-30T22:29:04.619Z,4.27
2022-09-30T22:31:33.276Z,6.23
2022-09-30T22:34:25.167Z,4.77
2022-09-30T22:37:10.859Z,4.30
2022-09-30T22:39:37.984Z,4.53
2022-09-30T22:42:08.321Z,4.40
2022-09-30T22:44:37.074Z,4.17
2022-09-30T22:47:04.948Z,3.97
2022-09-30T22:49:35.011Z,4.90
2022-09-30T22:52:03.698Z,5.13
2022-09-30T22:54:31.003Z,4.63
2022-09-30T22:56:59.259Z,5.70
2022-09-30T22:59:27.202Z,4.43
2022-09-30T23:01:54.639Z,4.83
2022-09-30T23:04:22.172Z,4.50
2022-09-30T23:06:51.184Z,4.50
2022-09-30T23:09:20.737Z,6.30
2022-09-30T23:11:48.369Z,4.53
2022-09-30T23:14:16.213Z,4.13
2022-09-30T23:16:43.001Z,4.30
2022-09-30T23:19:10.130Z,3.93
2022-09-30T23:21:37.237Z,3.97
2022-09-30T23:24:04.477Z,6.00
2022-09-30T23:26:31.589Z,4.73
2022-09-30T23:29:00.617Z,4.77
2022-09-30T23:31:28.406Z,4.37
2022-09-30T23:33:58.406Z,4.40
2022-09-30T23:36:29.648Z,7.57
2022-09-30T23:39:04.972Z,7.00
2022-09-30T23:41:33.907Z,4.00
2022-09-30T23:44:01.300Z,3.90
2022-09-30T23:46:28.096Z,7.17
2022-09-30T23:48:54.956Z,6.07
2022-09-30T23:51:21.744Z,6.20
2022-09-30T23:53:49.165Z,4.23
2022-09-30T23:56:18.201Z,4.70
2022-09-30T23:58:45.806Z,5.47
